sensor_id;sensor_type;location;lat;lon;timestamp;pressure;altitude;pressure_sealevel;temperature;humidity
27202;BME280;14717;46.924;15.474;2023-02-20T00:01:13;98552.84;;;4.87;79.00
27202;BME280;14717;46.924;15.474;2023-02-20T00:03:39;98580.09;;;4.71;80.30
27202;BME280;14717;46.924;15.474;2023-02-20T00:06:04;98579.41;;;4.75;79.92
27202;BME280;14717;46.924;15.474;2023-02-20T00:08:29;98580.22;;;4.87;79.26
27202;BME280;14717;46.924;15.474;2023-02-20T00:10:55;98590.94;;;4.77;79.76
27202;BME280;14717;46.924;15.474;2023-02-20T00:13:20;98588.53;;;4.69;80.56
27202;BME280;14717;46.924;15.474;2023-02-20T00:15:46;98585.56;;;4.60;81.30
27202;BME280;14717;46.924;15.474;2023-02-20T00:18:11;98599.97;;;4.66;81.09
27202;BME280;14717;46.924;15.474;2023-02-20T00:20:36;98601.41;;;4.80;80.40
27202;BME280;14717;46.924;15.474;2023-02-20T00:23:02;98599.03;;;4.84;79.93
27202;BME280;14717;46.924;15.474;2023-02-20T00:25:27;98601.28;;;4.98;79.87
27202;BME280;14717;46.924;15.474;2023-02-20T00:27:52;98594.00;;;4.92;79.97
27202;BME280;14717;46.924;15.474;2023-02-20T00:30:21;98601.16;;;4.82;80.32
27202;BME280;14717;46.924;15.474;2023-02-20T00:32:48;98597.69;;;4.86;79.76
27202;BME280;14717;46.924;15.474;2023-02-20T00:35:15;98601.75;;;4.95;80.05
27202;BME280;14717;46.924;15.474;2023-02-20T00:37:40;98637.19;;;4.67;81.13
27202;BME280;14717;46.924;15.474;2023-02-20T00:40:07;98634.94;;;4.64;80.71
27202;BME280;14717;46.924;15.474;2023-02-20T00:42:32;98630.91;;;4.78;80.46
27202;BME280;14717;46.924;15.474;2023-02-20T00:44:58;98634.94;;;4.87;80.20
27202;BME280;14717;46.924;15.474;2023-02-20T00:47:23;98632.56;;;5.02;79.54
27202;BME280;14717;46.924;15.474;2023-02-20T00:49:48;98635.06;;;5.04;79.21
27202;BME280;14717;46.924;15.474;2023-02-20T00:52:14;98642.94;;;5.00;79.01
27202;BME280;14717;46.924;15.474;2023-02-20T00:54:39;98635.66;;;4.94;79.36
27202;BME280;14717;46.924;15.474;2023-02-20T00:57:04;98641.13;;;4.94;79.67
27202;BME280;14717;46.924;15.474;2023-02-20T00:59:30;98647.19;;;5.07;79.37
27202;BME280;14717;46.924;15.474;2023-02-20T01:01:55;98630.75;;;5.07;79.10
27202;BME280;14717;46.924;15.474;2023-02-20T01:04:21;98631.38;;;5.09;79.11
27202;BME280;14717;46.924;15.474;2023-02-20T01:06:46;98648.28;;;5.18;78.93
27202;BME280;14717;46.924;15.474;2023-02-20T01:09:12;98653.88;;;5.11;79.32
27202;BME280;14717;46.924;15.474;2023-02-20T01:11:37;98650.53;;;5.21;79.80
27202;BME280;14717;46.924;15.474;2023-02-20T01:14:05;98636.34;;;5.24;78.85
27202;BME280;14717;46.924;15.474;2023-02-20T01:16:30;98640.19;;;5.23;78.89
27202;BME280;14717;46.924;15.474;2023-02-20T01:18:55;98635.16;;;5.20;79.87
27202;BME280;14717;46.924;15.474;2023-02-20T01:21:21;98629.56;;;5.38;80.50
27202;BME280;14717;46.924;15.474;2023-02-20T01:23:46;98639.03;;;5.47;80.94
27202;BME280;14717;46.924;15.474;2023-02-20T01:26:11;98641.53;;;5.59;82.29
27202;BME280;14717;46.924;15.474;2023-02-20T01:28:37;98657.25;;;5.75;83.92
27202;BME280;14717;46.924;15.474;2023-02-20T01:31:02;98668.22;;;5.75;83.29
27202;BME280;14717;46.924;15.474;2023-02-20T01:33:27;98670.81;;;5.70;82.19
27202;BME280;14717;46.924;15.474;2023-02-20T01:35:53;98671.53;;;5.77;83.37
27202;BME280;14717;46.924;15.474;2023-02-20T01:38:18;98669.69;;;5.94;83.37
27202;BME280;14717;46.924;15.474;2023-02-20T01:40:48;98670.25;;;5.96;82.60
27202;BME280;14717;46.924;15.474;2023-02-20T01:43:14;98671.72;;;5.98;82.39
27202;BME280;14717;46.924;15.474;2023-02-20T01:45:40;98663.00;;;6.01;83.29
27202;BME280;14717;46.924;15.474;2023-02-20T01:48:11;98652.03;;;6.18;84.15
27202;BME280;14717;46.924;15.474;2023-02-20T01:50:43;98642.50;;;6.80;85.75
27202;BME280;14717;46.924;15.474;2023-02-20T01:53:15;98648.31;;;7.00;84.01
27202;BME280;14717;46.924;15.474;2023-02-20T01:55:50;98649.44;;;7.04;84.02
27202;BME280;14717;46.924;15.474;2023-02-20T01:58:21;98653.78;;;7.17;83.88
27202;BME280;14717;46.924;15.474;2023-02-20T02:00:48;98642.25;;;7.19;83.95
27202;BME280;14717;46.924;15.474;2023-02-20T02:03:18;98644.25;;;7.24;84.40
27202;BME280;14717;46.924;15.474;2023-02-20T02:05:47;98640.19;;;7.26;84.19
27202;BME280;14717;46.924;15.474;2023-02-20T02:08:15;98641.34;;;7.30;83.79
27202;BME280;14717;46.924;15.474;2023-02-20T02:10:47;98640.25;;;7.31;84.05
27202;BME280;14717;46.924;15.474;2023-02-20T02:13:17;98633.66;;;7.32;83.88
27202;BME280;14717;46.924;15.474;2023-02-20T02:15:43;98643.91;;;7.37;84.36
27202;BME280;14717;46.924;15.474;2023-02-20T02:32:17;98639.19;;;7.75;84.26
27202;BME280;14717;46.924;15.474;2023-02-20T02:38:15;98642.56;;;7.82;83.92
27202;BME280;14717;46.924;15.474;2023-02-20T02:46:26;98642.63;;;7.87;83.66
27202;BME280;14717;46.924;15.474;2023-02-20T02:49:13;98650.06;;;7.86;83.58
27202;BME280;14717;46.924;15.474;2023-02-20T02:51:43;98651.44;;;7.84;83.56
27202;BME280;14717;46.924;15.474;2023-02-20T02:54:16;98656.00;;;7.78;83.60
27202;BME280;14717;46.924;15.474;2023-02-20T02:56:45;98650.75;;;7.77;83.94
27202;BME280;14717;46.924;15.474;2023-02-20T02:59:23;98652.13;;;7.74;84.01
27202;BME280;14717;46.924;15.474;2023-02-20T03:01:53;98651.31;;;7.74;84.10
27202;BME280;14717;46.924;15.474;2023-02-20T03:04:20;98646.63;;;7.74;83.97
27202;BME280;14717;46.924;15.474;2023-02-20T03:06:58;98659.81;;;7.72;83.78
27202;BME280;14717;46.924;15.474;2023-02-20T03:09:55;98657.81;;;7.68;84.07
27202;BME280;14717;46.924;15.474;2023-02-20T03:12:23;98658.06;;;7.66;84.25
27202;BME280;14717;46.924;15.474;2023-02-20T03:15:16;98657.50;;;7.64;84.38
27202;BME280;14717;46.924;15.474;2023-02-20T03:20:54;98660.19;;;7.60;84.41
27202;BME280;14717;46.924;15.474;2023-02-20T03:23:30;98671.44;;;7.58;84.74
27202;BME280;14717;46.924;15.474;2023-02-20T03:26:01;98667.00;;;7.57;85.18
27202;BME280;14717;46.924;15.474;2023-02-20T03:28:31;98669.19;;;7.55;85.15
27202;BME280;14717;46.924;15.474;2023-02-20T03:33:36;98677.09;;;7.52;85.37
27202;BME280;14717;46.924;15.474;2023-02-20T03:36:53;98682.84;;;7.50;85.67
27202;BME280;14717;46.924;15.474;2023-02-20T03:39:43;98701.03;;;7.51;85.79
27202;BME280;14717;46.924;15.474;2023-02-20T03:42:30;98697.94;;;7.48;86.16
27202;BME280;14717;46.924;15.474;2023-02-20T03:45:16;98699.78;;;7.42;86.39
27202;BME280;14717;46.924;15.474;2023-02-20T03:47:44;98692.97;;;7.28;87.28
27202;BME280;14717;46.924;15.474;2023-02-20T03:50:12;98700.13;;;7.29;87.23
27202;BME280;14717;46.924;15.474;2023-02-20T03:52:57;98704.88;;;7.34;86.71
27202;BME280;14717;46.924;15.474;2023-02-20T03:55:22;98707.22;;;7.25;86.67
27202;BME280;14717;46.924;15.474;2023-02-20T03:57:51;98707.38;;;7.19;87.46
27202;BME280;14717;46.924;15.474;2023-02-20T04:00:26;98704.97;;;7.22;87.36
27202;BME280;14717;46.924;15.474;2023-02-20T04:02:55;98706.06;;;7.21;87.51
27202;BME280;14717;46.924;15.474;2023-02-20T04:05:24;98713.03;;;7.13;88.44
27202;BME280;14717;46.924;15.474;2023-02-20T04:10:25;98719.22;;;7.03;89.09
27202;BME280;14717;46.924;15.474;2023-02-20T04:12:54;98721.03;;;6.98;89.43
27202;BME280;14717;46.924;15.474;2023-02-20T04:15:20;98725.38;;;6.94;89.32
27202;BME280;14717;46.924;15.474;2023-02-20T04:17:58;98716.72;;;7.02;89.96
27202;BME280;14717;46.924;15.474;2023-02-20T04:20:25;98719.72;;;7.00;89.52
27202;BME280;14717;46.924;15.474;2023-02-20T04:22:52;98722.22;;;7.02;89.99
27202;BME280;14717;46.924;15.474;2023-02-20T04:28:09;98722.72;;;6.99;91.46
27202;BME280;14717;46.924;15.474;2023-02-20T04:30:35;98718.88;;;7.00;91.57
27202;BME280;14717;46.924;15.474;2023-02-20T04:33:01;98727.09;;;7.00;91.71
27202;BME280;14717;46.924;15.474;2023-02-20T04:35:26;98726.69;;;6.91;91.54
27202;BME280;14717;46.924;15.474;2023-02-20T04:37:52;98730.69;;;6.84;92.19
27202;BME280;14717;46.924;15.474;2023-02-20T04:40:19;98728.44;;;6.81;92.20
27202;BME280;14717;46.924;15.474;2023-02-20T04:42:45;98733.34;;;6.79;92.01
27202;BME280;14717;46.924;15.474;2023-02-20T04:45:10;98722.44;;;6.84;92.54
27202;BME280;14717;46.924;15.474;2023-02-20T04:47:36;98715.28;;;6.83;92.88
27202;BME280;14717;46.924;15.474;2023-02-20T04:50:01;98708.63;;;6.79;92.88
27202;BME280;14717;46.924;15.474;2023-02-20T04:52:27;98719.72;;;6.84;92.79
27202;BME280;14717;46.924;15.474;2023-02-20T04:54:52;98730.28;;;6.76;93.19
27202;BME280;14717;46.924;15.474;2023-02-20T04:57:18;98736.72;;;6.70;94.07
27202;BME280;14717;46.924;15.474;2023-02-20T04:59:43;98736.50;;;6.71;93.83
27202;BME280;14717;46.924;15.474;2023-02-20T05:02:10;98734.81;;;6.70;92.88
27202;BME280;14717;46.924;15.474;2023-02-20T05:04:36;98734.22;;;6.68;93.44
27202;BME280;14717;46.924;15.474;2023-02-20T05:07:02;98737.63;;;6.59;93.55
27202;BME280;14717;46.924;15.474;2023-02-20T05:09:27;98745.03;;;6.58;93.20
27202;BME280;14717;46.924;15.474;2023-02-20T05:11:53;98750.84;;;6.62;93.74
27202;BME280;14717;46.924;15.474;2023-02-20T05:14:19;98741.56;;;6.63;93.32
27202;BME280;14717;46.924;15.474;2023-02-20T05:16:45;98743.78;;;6.49;93.01
27202;BME280;14717;46.924;15.474;2023-02-20T05:19:12;98732.78;;;6.49;93.70
27202;BME280;14717;46.924;15.474;2023-02-20T05:21:41;98739.09;;;6.50;93.77
27202;BME280;14717;46.924;15.474;2023-02-20T05:24:25;98733.28;;;6.46;92.74
27202;BME280;14717;46.924;15.474;2023-02-20T05:26:53;98728.56;;;6.31;94.09
27202;BME280;14717;46.924;15.474;2023-02-20T05:29:18;98722.63;;;6.22;93.84
27202;BME280;14717;46.924;15.474;2023-02-20T05:31:44;98717.88;;;6.18;93.64
27202;BME280;14717;46.924;15.474;2023-02-20T05:34:09;98721.63;;;6.12;93.92
27202;BME280;14717;46.924;15.474;2023-02-20T05:36:35;98722.69;;;6.11;94.70
27202;BME280;14717;46.924;15.474;2023-02-20T05:39:01;98735.94;;;6.02;96.05
27202;BME280;14717;46.924;15.474;2023-02-20T05:41:26;98729.53;;;5.97;95.42
27202;BME280;14717;46.924;15.474;2023-02-20T05:43:51;98736.56;;;5.93;95.34
27202;BME280;14717;46.924;15.474;2023-02-20T05:46:25;98740.28;;;5.87;96.67
27202;BME280;14717;46.924;15.474;2023-02-20T05:48:51;98743.84;;;5.88;96.28
27202;BME280;14717;46.924;15.474;2023-02-20T05:51:25;98735.97;;;5.91;95.91
27202;BME280;14717;46.924;15.474;2023-02-20T05:53:51;98733.00;;;5.81;96.33
27202;BME280;14717;46.924;15.474;2023-02-20T05:56:18;98732.31;;;5.74;97.09
27202;BME280;14717;46.924;15.474;2023-02-20T05:58:44;98734.44;;;5.72;98.62
27202;BME280;14717;46.924;15.474;2023-02-20T06:03:42;98749.19;;;5.71;96.05
27202;BME280;14717;46.924;15.474;2023-02-20T06:06:07;98758.13;;;5.67;94.85
27202;BME280;14717;46.924;15.474;2023-02-20T06:08:33;98755.66;;;5.65;94.86
27202;BME280;14717;46.924;15.474;2023-02-20T06:10:58;98767.34;;;5.49;96.20
27202;BME280;14717;46.924;15.474;2023-02-20T06:13:23;98766.75;;;5.36;96.21
27202;BME280;14717;46.924;15.474;2023-02-20T06:15:49;98765.06;;;5.35;97.34
27202;BME280;14717;46.924;15.474;2023-02-20T06:18:14;98763.28;;;5.18;97.41
27202;BME280;14717;46.924;15.474;2023-02-20T06:20:39;98759.97;;;5.16;98.12
27202;BME280;14717;46.924;15.474;2023-02-20T06:23:05;98756.00;;;5.12;99.05
27202;BME280;14717;46.924;15.474;2023-02-20T06:25:30;98759.22;;;5.09;98.47
27202;BME280;14717;46.924;15.474;2023-02-20T06:27:55;98764.91;;;5.07;97.31
27202;BME280;14717;46.924;15.474;2023-02-20T06:30:21;98769.78;;;4.94;97.14
27202;BME280;14717;46.924;15.474;2023-02-20T06:32:46;98760.84;;;4.87;99.09
27202;BME280;14717;46.924;15.474;2023-02-20T06:35:11;98756.97;;;4.95;100.00
27202;BME280;14717;46.924;15.474;2023-02-20T06:37:37;98760.66;;;5.00;98.44
27202;BME280;14717;46.924;15.474;2023-02-20T06:40:03;98768.16;;;5.05;96.95
27202;BME280;14717;46.924;15.474;2023-02-20T06:42:29;98774.56;;;4.99;96.52
27202;BME280;14717;46.924;15.474;2023-02-20T06:44:54;98776.56;;;4.80;97.80
27202;BME280;14717;46.924;15.474;2023-02-20T06:47:20;98772.25;;;4.84;98.07
27202;BME280;14717;46.924;15.474;2023-02-20T06:49:45;98772.63;;;4.88;98.25
27202;BME280;14717;46.924;15.474;2023-02-20T06:52:11;98782.03;;;4.80;99.88
27202;BME280;14717;46.924;15.474;2023-02-20T06:54:37;98780.13;;;4.92;98.47
27202;BME280;14717;46.924;15.474;2023-02-20T06:57:04;98786.13;;;5.12;98.71
27202;BME280;14717;46.924;15.474;2023-02-20T06:59:29;98783.16;;;5.25;98.10
27202;BME280;14717;46.924;15.474;2023-02-20T07:01:55;98788.53;;;5.31;99.18
27202;BME280;14717;46.924;15.474;2023-02-20T07:04:23;98790.19;;;5.44;99.49
27202;BME280;14717;46.924;15.474;2023-02-20T07:06:48;98787.94;;;5.52;96.76
27202;BME280;14717;46.924;15.474;2023-02-20T07:09:14;98795.34;;;5.63;95.96
27202;BME280;14717;46.924;15.474;2023-02-20T07:11:40;98803.09;;;5.77;96.15
27202;BME280;14717;46.924;15.474;2023-02-20T07:14:06;98796.19;;;5.86;97.17
27202;BME280;14717;46.924;15.474;2023-02-20T07:16:31;98789.63;;;5.87;97.33
27202;BME280;14717;46.924;15.474;2023-02-20T07:18:57;98790.91;;;5.96;98.50
27202;BME280;14717;46.924;15.474;2023-02-20T07:21:22;98788.50;;;6.11;98.77
27202;BME280;14717;46.924;15.474;2023-02-20T07:23:48;98778.44;;;6.28;98.28
27202;BME280;14717;46.924;15.474;2023-02-20T07:28:43;98767.16;;;6.40;97.10
27202;BME280;14717;46.924;15.474;2023-02-20T07:31:08;98771.44;;;6.48;96.37
27202;BME280;14717;46.924;15.474;2023-02-20T07:33:33;98770.72;;;6.52;96.12
27202;BME280;14717;46.924;15.474;2023-02-20T07:35:59;98774.50;;;6.63;95.93
27202;BME280;14717;46.924;15.474;2023-02-20T07:38:24;98771.13;;;6.72;95.34
27202;BME280;14717;46.924;15.474;2023-02-20T07:40:50;98776.78;;;6.82;94.87
27202;BME280;14717;46.924;15.474;2023-02-20T07:43:15;98770.38;;;6.93;93.90
27202;BME280;14717;46.924;15.474;2023-02-20T07:45:41;98772.63;;;6.96;92.99
27202;BME280;14717;46.924;15.474;2023-02-20T07:48:06;98764.50;;;7.01;92.88
27202;BME280;14717;46.924;15.474;2023-02-20T07:50:33;98772.75;;;7.17;93.13
27202;BME280;14717;46.924;15.474;2023-02-20T07:52:58;98776.16;;;7.24;91.63
27202;BME280;14717;46.924;15.474;2023-02-20T07:55:23;98786.25;;;7.19;91.56
27202;BME280;14717;46.924;15.474;2023-02-20T07:57:49;98783.16;;;7.31;91.44
27202;BME280;14717;46.924;15.474;2023-02-20T08:00:18;98781.72;;;7.45;91.08
27202;BME280;14717;46.924;15.474;2023-02-20T08:02:45;98780.91;;;7.45;90.26
27202;BME280;14717;46.924;15.474;2023-02-20T08:05:10;98771.06;;;7.49;89.85
27202;BME280;14717;46.924;15.474;2023-02-20T08:07:36;98768.41;;;7.54;89.74
27202;BME280;14717;46.924;15.474;2023-02-20T08:10:03;98772.66;;;7.61;89.21
27202;BME280;14717;46.924;15.474;2023-02-20T08:12:28;98770.22;;;7.64;88.98
27202;BME280;14717;46.924;15.474;2023-02-20T08:14:53;98762.13;;;7.74;88.65
27202;BME280;14717;46.924;15.474;2023-02-20T08:17:19;98767.31;;;7.55;89.05
27202;BME280;14717;46.924;15.474;2023-02-20T08:19:44;98762.66;;;7.55;89.57
27202;BME280;14717;46.924;15.474;2023-02-20T08:22:10;98753.94;;;7.79;89.02
27202;BME280;14717;46.924;15.474;2023-02-20T08:24:35;98765.28;;;7.83;88.36
27202;BME280;14717;46.924;15.474;2023-02-20T08:27:00;98754.63;;;8.07;88.11
27202;BME280;14717;46.924;15.474;2023-02-20T08:29:26;98759.66;;;8.32;86.58
27202;BME280;14717;46.924;15.474;2023-02-20T08:31:51;98757.28;;;8.40;85.75
27202;BME280;14717;46.924;15.474;2023-02-20T08:34:17;98746.56;;;8.44;85.08
27202;BME280;14717;46.924;15.474;2023-02-20T08:36:42;98739.38;;;8.64;84.09
27202;BME280;14717;46.924;15.474;2023-02-20T08:39:07;98732.25;;;8.68;82.85
27202;BME280;14717;46.924;15.474;2023-02-20T08:41:33;98727.38;;;8.75;82.50
27202;BME280;14717;46.924;15.474;2023-02-20T08:43:58;98727.53;;;8.90;81.74
27202;BME280;14717;46.924;15.474;2023-02-20T08:46:24;98720.16;;;9.00;81.57
27202;BME280;14717;46.924;15.474;2023-02-20T08:48:49;98700.91;;;9.05;80.95
27202;BME280;14717;46.924;15.474;2023-02-20T08:51:18;98704.97;;;8.92;81.59
27202;BME280;14717;46.924;15.474;2023-02-20T08:53:44;98701.13;;;8.98;81.34
27202;BME280;14717;46.924;15.474;2023-02-20T08:56:10;98705.25;;;8.96;81.97
27202;BME280;14717;46.924;15.474;2023-02-20T08:58:37;98701.94;;;9.25;81.59
27202;BME280;14717;46.924;15.474;2023-02-20T09:01:03;98699.84;;;9.42;80.12
27202;BME280;14717;46.924;15.474;2023-02-20T09:03:29;98693.66;;;9.61;80.22
27202;BME280;14717;46.924;15.474;2023-02-20T09:05:54;98686.53;;;9.70;78.93
27202;BME280;14717;46.924;15.474;2023-02-20T09:08:20;98687.38;;;9.75;78.09
27202;BME280;14717;46.924;15.474;2023-02-20T09:10:45;98693.03;;;9.95;77.28
27202;BME280;14717;46.924;15.474;2023-02-20T09:13:11;98684.25;;;10.03;76.75
27202;BME280;14717;46.924;15.474;2023-02-20T09:15:36;98676.38;;;9.85;77.60
27202;BME280;14717;46.924;15.474;2023-02-20T09:18:06;98669.81;;;9.91;77.36
27202;BME280;14717;46.924;15.474;2023-02-20T09:20:34;98674.66;;;10.20;76.73
27202;BME280;14717;46.924;15.474;2023-02-20T09:23:01;98670.28;;;10.34;74.96
27202;BME280;14717;46.924;15.474;2023-02-20T09:25:27;98665.88;;;10.48;74.34
27202;BME280;14717;46.924;15.474;2023-02-20T09:27:52;98664.00;;;10.54;74.56
27202;BME280;14717;46.924;15.474;2023-02-20T09:30:19;98665.59;;;10.45;74.89
27202;BME280;14717;46.924;15.474;2023-02-20T09:32:46;98659.81;;;10.51;74.80
27202;BME280;14717;46.924;15.474;2023-02-20T09:35:24;98662.84;;;10.50;74.13
27202;BME280;14717;46.924;15.474;2023-02-20T09:37:50;98654.03;;;10.62;74.17
27202;BME280;14717;46.924;15.474;2023-02-20T09:40:16;98663.47;;;10.76;73.79
27202;BME280;14717;46.924;15.474;2023-02-20T09:43:15;98664.56;;;10.80;73.77
27202;BME280;14717;46.924;15.474;2023-02-20T09:45:43;98648.28;;;10.99;72.65
27202;BME280;14717;46.924;15.474;2023-02-20T09:48:22;98639.72;;;10.95;71.25
27202;BME280;14717;46.924;15.474;2023-02-20T09:51:01;98644.16;;;11.11;71.04
27202;BME280;14717;46.924;15.474;2023-02-20T09:53:38;98639.69;;;11.20;70.37
27202;BME280;14717;46.924;15.474;2023-02-20T09:56:13;98631.13;;;11.16;70.17
27202;BME280;14717;46.924;15.474;2023-02-20T09:58:52;98628.09;;;11.28;68.87
27202;BME280;14717;46.924;15.474;2023-02-20T10:01:21;98624.47;;;11.57;66.70
27202;BME280;14717;46.924;15.474;2023-02-20T10:03:55;98615.81;;;11.83;64.41
27202;BME280;14717;46.924;15.474;2023-02-20T10:06:27;98618.59;;;11.78;63.98
27202;BME280;14717;46.924;15.474;2023-02-20T10:08:54;98613.09;;;11.68;63.78
27202;BME280;14717;46.924;15.474;2023-02-20T10:12:31;98612.97;;;11.98;62.52
27202;BME280;14717;46.924;15.474;2023-02-20T10:20:16;98592.50;;;12.42;63.22
27202;BME280;14717;46.924;15.474;2023-02-20T10:25:52;98596.91;;;12.48;63.99
27202;BME280;14717;46.924;15.474;2023-02-20T10:28:19;98585.44;;;12.64;64.76
27202;BME280;14717;46.924;15.474;2023-02-20T10:33:32;98595.94;;;12.67;61.76
27202;BME280;14717;46.924;15.474;2023-02-20T10:36:08;98591.53;;;12.61;62.28
27202;BME280;14717;46.924;15.474;2023-02-20T10:39:26;98585.28;;;12.89;62.03
27202;BME280;14717;46.924;15.474;2023-02-20T10:47:08;98573.31;;;13.21;59.97
27202;BME280;14717;46.924;15.474;2023-02-20T10:52:09;98576.03;;;13.55;60.85
27202;BME280;14717;46.924;15.474;2023-02-20T10:54:39;98568.03;;;13.71;59.87
27202;BME280;14717;46.924;15.474;2023-02-20T10:57:24;98575.84;;;13.93;59.27
27202;BME280;14717;46.924;15.474;2023-02-20T11:00:00;98574.84;;;13.84;58.44
27202;BME280;14717;46.924;15.474;2023-02-20T11:02:33;98563.25;;;14.23;57.35
27202;BME280;14717;46.924;15.474;2023-02-20T11:05:07;98560.75;;;14.04;56.74
27202;BME280;14717;46.924;15.474;2023-02-20T11:07:33;98560.03;;;14.35;55.97
27202;BME280;14717;46.924;15.474;2023-02-20T11:09:59;98561.06;;;14.20;56.19
27202;BME280;14717;46.924;15.474;2023-02-20T11:12:43;98541.06;;;14.55;54.66
27202;BME280;14717;46.924;15.474;2023-02-20T11:15:16;98536.59;;;14.90;54.10
27202;BME280;14717;46.924;15.474;2023-02-20T11:17:43;98532.72;;;15.23;52.02
27202;BME280;14717;46.924;15.474;2023-02-20T11:22:56;98518.47;;;15.25;49.34
27202;BME280;14717;46.924;15.474;2023-02-20T11:25:35;98512.28;;;14.96;48.53
27202;BME280;14717;46.924;15.474;2023-02-20T11:30:33;98497.59;;;15.09;49.50
27202;BME280;14717;46.924;15.474;2023-02-20T11:33:16;98493.84;;;15.32;51.01
27202;BME280;14717;46.924;15.474;2023-02-20T11:35:49;98487.25;;;15.41;50.72
27202;BME280;14717;46.924;15.474;2023-02-20T11:38:23;98494.56;;;15.37;50.01
27202;BME280;14717;46.924;15.474;2023-02-20T11:43:24;98480.75;;;15.32;47.92
27202;BME280;14717;46.924;15.474;2023-02-20T11:46:13;98481.25;;;15.34;50.26
27202;BME280;14717;46.924;15.474;2023-02-20T11:51:41;98462.91;;;15.33;49.91
27202;BME280;14717;46.924;15.474;2023-02-20T11:54:08;98455.06;;;15.35;49.64
27202;BME280;14717;46.924;15.474;2023-02-20T11:56:33;98451.78;;;15.46;48.40
27202;BME280;14717;46.924;15.474;2023-02-20T11:59:30;98452.03;;;15.85;48.98
27202;BME280;14717;46.924;15.474;2023-02-20T12:02:20;98442.66;;;15.94;48.66
27202;BME280;14717;46.924;15.474;2023-02-20T12:05:10;98428.72;;;15.94;48.16
27202;BME280;14717;46.924;15.474;2023-02-20T12:07:40;98427.03;;;15.93;47.41
27202;BME280;14717;46.924;15.474;2023-02-20T12:12:44;98414.91;;;16.24;47.06
27202;BME280;14717;46.924;15.474;2023-02-20T12:15:16;98405.22;;;16.22;46.58
27202;BME280;14717;46.924;15.474;2023-02-20T12:20:28;98395.75;;;15.96;46.27
27202;BME280;14717;46.924;15.474;2023-02-20T12:23:06;98389.75;;;16.03;47.17
27202;BME280;14717;46.924;15.474;2023-02-20T12:38:57;98342.78;;;16.53;45.38
27202;BME280;14717;46.924;15.474;2023-02-20T12:44:47;98328.31;;;16.81;45.61
27202;BME280;14717;46.924;15.474;2023-02-20T12:47:41;98323.75;;;16.94;43.58
27202;BME280;14717;46.924;15.474;2023-02-20T12:50:28;98329.97;;;16.91;43.15
27202;BME280;14717;46.924;15.474;2023-02-20T13:00:53;98319.91;;;16.73;38.58
27202;BME280;14717;46.924;15.474;2023-02-20T13:06:08;98324.75;;;16.89;38.73
27202;BME280;14717;46.924;15.474;2023-02-20T13:08:54;98317.41;;;17.10;37.72
27202;BME280;14717;46.924;15.474;2023-02-20T13:11:28;98317.41;;;17.10;38.15
27202;BME280;14717;46.924;15.474;2023-02-20T13:16:43;98310.13;;;17.22;35.78
27202;BME280;14717;46.924;15.474;2023-02-20T13:22:15;98295.66;;;17.20;34.07
27202;BME280;14717;46.924;15.474;2023-02-20T13:24:41;98301.84;;;17.17;36.20
27202;BME280;14717;46.924;15.474;2023-02-20T13:27:07;98299.94;;;17.26;37.29
27202;BME280;14717;46.924;15.474;2023-02-20T13:29:36;98299.28;;;17.29;36.49
27202;BME280;14717;46.924;15.474;2023-02-20T13:32:21;98284.03;;;17.44;36.78
27202;BME280;14717;46.924;15.474;2023-02-20T13:34:48;98286.84;;;17.52;37.63
27202;BME280;14717;46.924;15.474;2023-02-20T13:40:38;98266.97;;;17.53;38.57
27202;BME280;14717;46.924;15.474;2023-02-20T13:48:39;98262.34;;;17.41;40.13
27202;BME280;14717;46.924;15.474;2023-02-20T13:53:43;98252.75;;;17.25;40.17
27202;BME280;14717;46.924;15.474;2023-02-20T13:56:26;98255.41;;;17.30;40.73
27202;BME280;14717;46.924;15.474;2023-02-20T13:58:56;98257.72;;;17.28;40.37
27202;BME280;14717;46.924;15.474;2023-02-20T14:01:22;98251.16;;;17.41;40.69
27202;BME280;14717;46.924;15.474;2023-02-20T14:04:03;98243.75;;;17.45;40.37
27202;BME280;14717;46.924;15.474;2023-02-20T14:06:29;98241.59;;;17.42;40.81
27202;BME280;14717;46.924;15.474;2023-02-20T14:09:28;98233.06;;;17.30;40.66
27202;BME280;14717;46.924;15.474;2023-02-20T14:12:05;98227.13;;;17.23;40.23
27202;BME280;14717;46.924;15.474;2023-02-20T14:14:36;98225.84;;;17.29;40.49
27202;BME280;14717;46.924;15.474;2023-02-20T14:17:23;98226.16;;;17.36;40.68
27202;BME280;14717;46.924;15.474;2023-02-20T14:19:55;98223.88;;;17.54;40.97
27202;BME280;14717;46.924;15.474;2023-02-20T14:22:30;98213.03;;;17.45;40.43
27202;BME280;14717;46.924;15.474;2023-02-20T14:27:38;98216.81;;;17.48;40.56
27202;BME280;14717;46.924;15.474;2023-02-20T14:32:36;98216.16;;;17.60;40.72
27202;BME280;14717;46.924;15.474;2023-02-20T14:35:24;98207.91;;;17.38;40.41
27202;BME280;14717;46.924;15.474;2023-02-20T14:40:33;98201.63;;;17.16;40.50
27202;BME280;14717;46.924;15.474;2023-02-20T14:43:02;98195.56;;;17.14;40.82
27202;BME280;14717;46.924;15.474;2023-02-20T14:45:28;98204.25;;;17.04;40.44
27202;BME280;14717;46.924;15.474;2023-02-20T14:47:55;98188.47;;;17.00;41.20
27202;BME280;14717;46.924;15.474;2023-02-20T14:50:32;98195.66;;;16.92;41.36
27202;BME280;14717;46.924;15.474;2023-02-20T14:53:13;98190.22;;;16.87;40.58
27202;BME280;14717;46.924;15.474;2023-02-20T14:55:40;98192.38;;;16.82;40.75
27202;BME280;14717;46.924;15.474;2023-02-20T14:58:07;98191.72;;;16.76;41.01
27202;BME280;14717;46.924;15.474;2023-02-20T15:00:38;98185.94;;;16.73;40.54
27202;BME280;14717;46.924;15.474;2023-02-20T15:03:10;98186.75;;;16.65;40.88
27202;BME280;14717;46.924;15.474;2023-02-20T15:05:43;98184.09;;;16.60;40.15
27202;BME280;14717;46.924;15.474;2023-02-20T15:10:39;98185.22;;;16.51;41.24
27202;BME280;14717;46.924;15.474;2023-02-20T15:13:13;98182.56;;;16.46;41.70
27202;BME280;14717;46.924;15.474;2023-02-20T15:15:51;98179.72;;;16.29;42.83
27202;BME280;14717;46.924;15.474;2023-02-20T15:18:36;98173.72;;;16.14;43.00
27202;BME280;14717;46.924;15.474;2023-02-20T15:21:03;98162.63;;;16.00;43.56